sensor_id;sensor_type;location;lat;lon;timestamp;pressure;altitude;pressure_sealevel;temperature
7830;BMP180;3960;51.86894000;5.39848000;2023-05-07T00:01:28;101674.75;;;14.43
7830;BMP180;3960;51.86894000;5.39848000;2023-05-07T00:03:53;101678.25;;;14.44
7830;BMP180;3960;51.86894000;5.39848000;2023-05-07T00:06:18;101663.19;;;14.36
7830;BMP180;3960;51.86894000;5.39848000;2023-05-07T00:08:44;101677.84;;;14.45
7830;BMP180;3960;51.86894000;5.39848000;2023-05-07T00:11:10;101671.59;;;14.45
7830;BMP180;3960;51.86894000;5.39848000;2023-05-07T00:13:35;101679.03;;;14.44
7830;BMP180;3960;51.86894000;5.39848000;2023-05-07T00:16:04;101679.41;;;14.46
7830;BMP180;3960;51.86894000;5.39848000;2023-05-07T00:18:29;101687.56;;;14.46
7830;BMP180;3960;51.86894000;5.39848000;2023-05-07T00:20:55;101678.97;;;14.48
7830;BMP180;3960;51.86894000;5.39848000;2023-05-07T00:23:21;101674.28;;;14.48
7830;BMP180;3960;51.86894000;5.39848000;2023-05-07T00:25:46;101669.25;;;14.47
7830;BMP180;3960;51.86894000;5.39848000;2023-05-07T00:28:12;101655.63;;;14.47
7830;BMP180;3960;51.86894000;5.39848000;2023-05-07T00:30:37;101654.44;;;14.48
7830;BMP180;3960;51.86894000;5.39848000;2023-05-07T00:33:02;101650.19;;;14.47
7830;BMP180;3960;51.86894000;5.39848000;2023-05-07T00:35:28;101645.19;;;14.42
7830;BMP180;3960;51.86894000;5.39848000;2023-05-07T00:37:54;101651.31;;;14.49
7830;BMP180;3960;51.86894000;5.39848000;2023-05-07T00:40:20;101652.84;;;14.50
7830;BMP180;3960;51.86894000;5.39848000;2023-05-07T00:42:45;101652.84;;;14.50
7830;BMP180;3960;51.86894000;5.39848000;2023-05-07T00:45:18;101655.16;;;14.52
7830;BMP180;3960;51.86894000;5.39848000;2023-05-07T00:47:43;101643.13;;;14.49
7830;BMP180;3960;51.86894000;5.39848000;2023-05-07T00:50:09;101649.38;;;14.50
7830;BMP180;3960;51.86894000;5.39848000;2023-05-07T00:52:38;101633.47;;;14.45
7830;BMP180;3960;51.86894000;5.39848000;2023-05-07T00:55:05;101645.47;;;14.51
7830;BMP180;3960;51.86894000;5.39848000;2023-05-07T00:57:39;101642.00;;;14.47
7830;BMP180;3960;51.86894000;5.39848000;2023-05-07T01:00:06;101648.94;;;14.51
7830;BMP180;3960;51.86894000;5.39848000;2023-05-07T01:02:33;101648.19;;;14.51
7830;BMP180;3960;51.86894000;5.39848000;2023-05-07T01:05:00;101643.06;;;14.53
7830;BMP180;3960;51.86894000;5.39848000;2023-05-07T01:07:26;101646.59;;;14.53
7830;BMP180;3960;51.86894000;5.39848000;2023-05-07T01:09:52;101646.97;;;14.52
7830;BMP180;3960;51.86894000;5.39848000;2023-05-07T01:12:17;101647.78;;;14.52
7830;BMP180;3960;51.86894000;5.39848000;2023-05-07T01:14:42;101652.03;;;14.53
7830;BMP180;3960;51.86894000;5.39848000;2023-05-07T01:17:08;101650.50;;;14.52
7830;BMP180;3960;51.86894000;5.39848000;2023-05-07T01:19:33;101642.75;;;14.51
7830;BMP180;3960;51.86894000;5.39848000;2023-05-07T01:22:07;101631.16;;;14.43
7830;BMP180;3960;51.86894000;5.39848000;2023-05-07T01:24:34;101639.66;;;14.49
7830;BMP180;3960;51.86894000;5.39848000;2023-05-07T01:27:00;101636.53;;;14.47
7830;BMP180;3960;51.86894000;5.39848000;2023-05-07T01:29:26;101633.06;;;14.46
7830;BMP180;3960;51.86894000;5.39848000;2023-05-07T01:31:52;101636.91;;;14.49
7830;BMP180;3960;51.86894000;5.39848000;2023-05-07T01:34:19;101632.22;;;14.49
7830;BMP180;3960;51.86894000;5.39848000;2023-05-07T01:36:46;101633.41;;;14.48
7830;BMP180;3960;51.86894000;5.39848000;2023-05-07T01:39:12;101638.09;;;14.48
7830;BMP180;3960;51.86894000;5.39848000;2023-05-07T01:41:37;101635.38;;;14.48
7830;BMP180;3960;51.86894000;5.39848000;2023-05-07T01:44:03;101630.34;;;14.46
7830;BMP180;3960;51.86894000;5.39848000;2023-05-07T01:46:31;101638.50;;;14.46
7830;BMP180;3960;51.86894000;5.39848000;2023-05-07T01:48:57;101633.06;;;14.46
7830;BMP180;3960;51.86894000;5.39848000;2023-05-07T01:51:23;101634.25;;;14.45
7830;BMP180;3960;51.86894000;5.39848000;2023-05-07T01:53:48;101626.53;;;14.40
7830;BMP180;3960;51.86894000;5.39848000;2023-05-07T01:56:17;101631.16;;;14.43
7830;BMP180;3960;51.86894000;5.39848000;2023-05-07T01:58:42;101633.81;;;14.47
7830;BMP180;3960;51.86894000;5.39848000;2023-05-07T02:01:08;101636.53;;;14.47
7830;BMP180;3960;51.86894000;5.39848000;2023-05-07T02:03:33;101627.63;;;14.46
7830;BMP180;3960;51.86894000;5.39848000;2023-05-07T02:05:58;101630.69;;;14.48
7830;BMP180;3960;51.86894000;5.39848000;2023-05-07T02:08:23;101634.94;;;14.49
7830;BMP180;3960;51.86894000;5.39848000;2023-05-07T02:10:49;101631.94;;;14.44
7830;BMP180;3960;51.86894000;5.39848000;2023-05-07T02:13:16;101631.50;;;14.45
7830;BMP180;3960;51.86894000;5.39848000;2023-05-07T02:15:41;101625.28;;;14.45
7830;BMP180;3960;51.86894000;5.39848000;2023-05-07T02:18:08;101624.88;;;14.46
7830;BMP180;3960;51.86894000;5.39848000;2023-05-07T02:20:34;101622.97;;;14.43
7830;BMP180;3960;51.86894000;5.39848000;2023-05-07T02:22:59;101624.16;;;14.42
7830;BMP180;3960;51.86894000;5.39848000;2023-05-07T02:25:25;101625.31;;;14.41
7830;BMP180;3960;51.86894000;5.39848000;2023-05-07T02:27:50;101628.47;;;14.40
7830;BMP180;3960;51.86894000;5.39848000;2023-05-07T02:30:16;101633.91;;;14.40
7830;BMP180;3960;51.86894000;5.39848000;2023-05-07T02:32:41;101628.88;;;14.38
7830;BMP180;3960;51.86894000;5.39848000;2023-05-07T02:35:07;101639.78;;;14.38
7830;BMP180;3960;51.86894000;5.39848000;2023-05-07T02:37:32;101634.34;;;14.38
7830;BMP180;3960;51.86894000;5.39848000;2023-05-07T02:39:57;101640.97;;;14.37
7830;BMP180;3960;51.86894000;5.39848000;2023-05-07T02:42:23;101631.63;;;14.38
7830;BMP180;3960;51.86894000;5.39848000;2023-05-07T02:44:48;101631.25;;;14.36
7830;BMP180;3960;51.86894000;5.39848000;2023-05-07T02:47:14;101642.16;;;14.36
7830;BMP180;3960;51.86894000;5.39848000;2023-05-07T02:49:40;101634.75;;;14.37
7830;BMP180;3960;51.86894000;5.39848000;2023-05-07T02:52:05;101641.72;;;14.38
7830;BMP180;3960;51.86894000;5.39848000;2023-05-07T02:54:31;101634.75;;;14.37
7830;BMP180;3960;51.86894000;5.39848000;2023-05-07T02:56:56;101631.66;;;14.35
7830;BMP180;3960;51.86894000;5.39848000;2023-05-07T02:59:23;101626.25;;;14.31
7830;BMP180;3960;51.86894000;5.39848000;2023-05-07T03:01:48;101630.13;;;14.34
7830;BMP180;3960;51.86894000;5.39848000;2023-05-07T03:04:13;101615.81;;;14.26
7830;BMP180;3960;51.86894000;5.39848000;2023-05-07T03:06:38;101633.63;;;14.34
7830;BMP180;3960;51.86894000;5.39848000;2023-05-07T03:09:04;101606.56;;;14.20
7830;BMP180;3960;51.86894000;5.39848000;2023-05-07T03:11:29;101620.09;;;14.27
7830;BMP180;3960;51.86894000;5.39848000;2023-05-07T03:13:54;101620.06;;;14.31
7830;BMP180;3960;51.86894000;5.39848000;2023-05-07T03:16:20;101623.53;;;14.31
7830;BMP180;3960;51.86894000;5.39848000;2023-05-07T03:18:45;101620.44;;;14.29
7830;BMP180;3960;51.86894000;5.39848000;2023-05-07T03:21:11;101615.00;;;14.29
7830;BMP180;3960;51.86894000;5.39848000;2023-05-07T03:23:36;101620.44;;;14.29
7830;BMP180;3960;51.86894000;5.39848000;2023-05-07T03:26:01;101621.63;;;14.28
7830;BMP180;3960;51.86894000;5.39848000;2023-05-07T03:28:27;101622.81;;;14.27
7830;BMP180;3960;51.86894000;5.39848000;2023-05-07T03:30:52;101621.28;;;14.26
7830;BMP180;3960;51.86894000;5.39848000;2023-05-07T03:33:17;101613.53;;;14.21
7830;BMP180;3960;51.86894000;5.39848000;2023-05-07T03:35:42;101623.22;;;14.26
7830;BMP180;3960;51.86894000;5.39848000;2023-05-07T03:38:08;101618.19;;;14.24
7830;BMP180;3960;51.86894000;5.39848000;2023-05-07T03:40:33;101620.16;;;14.24
7830;BMP180;3960;51.86894000;5.39848000;2023-05-07T03:42:59;101617.75;;;14.26
7830;BMP180;3960;51.86894000;5.39848000;2023-05-07T03:45:25;101626.72;;;14.26
7830;BMP180;3960;51.86894000;5.39848000;2023-05-07T03:47:50;101619.72;;;14.25
7830;BMP180;3960;51.86894000;5.39848000;2023-05-07T03:50:16;101620.50;;;14.26
7830;BMP180;3960;51.86894000;5.39848000;2023-05-07T03:52:41;101622.03;;;14.27
7830;BMP180;3960;51.86894000;5.39848000;2023-05-07T03:55:06;101618.22;;;14.21
7830;BMP180;3960;51.86894000;5.39848000;2023-05-07T03:57:33;101626.72;;;14.26
7830;BMP180;3960;51.86894000;5.39848000;2023-05-07T03:59:58;101621.31;;;14.23
7830;BMP180;3960;51.86894000;5.39848000;2023-05-07T04:02:24;101629.78;;;14.28
7830;BMP180;3960;51.86894000;5.39848000;2023-05-07T04:04:49;101626.72;;;14.26
7830;BMP180;3960;51.86894000;5.39848000;2023-05-07T04:07:15;101629.03;;;14.28
7830;BMP180;3960;51.86894000;5.39848000;2023-05-07T04:09:40;101627.84;;;14.29
7830;BMP180;3960;51.86894000;5.39848000;2023-05-07T04:12:05;101635.63;;;14.30
7830;BMP180;3960;51.86894000;5.39848000;2023-05-07T04:14:31;101638.34;;;14.30
7830;BMP180;3960;51.86894000;5.39848000;2023-05-07T04:16:58;101640.25;;;14.33
7830;BMP180;3960;51.86894000;5.39848000;2023-05-07T04:19:23;101639.88;;;14.31
7830;BMP180;3960;51.86894000;5.39848000;2023-05-07T04:21:48;101639.06;;;14.34
7830;BMP180;3960;51.86894000;5.39848000;2023-05-07T04:24:14;101627.38;;;14.34
7830;BMP180;3960;51.86894000;5.39848000;2023-05-07T04:26:39;101633.97;;;14.36
7830;BMP180;3960;51.86894000;5.39848000;2023-05-07T04:29:05;101614.28;;;14.25
7830;BMP180;3960;51.86894000;5.39848000;2023-05-07T04:31:30;101637.81;;;14.39
7830;BMP180;3960;51.86894000;5.39848000;2023-05-07T04:33:56;101639.38;;;14.40
7830;BMP180;3960;51.86894000;5.39848000;2023-05-07T04:36:22;101635.09;;;14.39
7830;BMP180;3960;51.86894000;5.39848000;2023-05-07T04:38:47;101643.22;;;14.42
7830;BMP180;3960;51.86894000;5.39848000;2023-05-07T04:41:12;101632.69;;;14.44
7830;BMP180;3960;51.86894000;5.39848000;2023-05-07T04:43:38;101638.91;;;14.45
7830;BMP180;3960;51.86894000;5.39848000;2023-05-07T04:46:03;101629.56;;;14.46
7830;BMP180;3960;51.86894000;5.39848000;2023-05-07T04:48:28;101641.59;;;14.48
7830;BMP180;3960;51.86894000;5.39848000;2023-05-07T04:50:54;101644.69;;;14.50
7830;BMP180;3960;51.86894000;5.39848000;2023-05-07T04:53:19;101642.75;;;14.51
7830;BMP180;3960;51.86894000;5.39848000;2023-05-07T04:55:45;101659.00;;;14.54
7830;BMP180;3960;51.86894000;5.39848000;2023-05-07T04:58:13;101652.75;;;14.57
7830;BMP180;3960;51.86894000;5.39848000;2023-05-07T05:00:38;101655.06;;;14.58
7830;BMP180;3960;51.86894000;5.39848000;2023-05-07T05:03:05;101658.91;;;14.61
7830;BMP180;3960;51.86894000;5.39848000;2023-05-07T05:05:31;101660.06;;;14.63
7830;BMP180;3960;51.86894000;5.39848000;2023-05-07T05:07:56;101658.47;;;14.66
7830;BMP180;3960;51.86894000;5.39848000;2023-05-07T05:10:21;101661.97;;;14.66
7830;BMP180;3960;51.86894000;5.39848000;2023-05-07T05:12:47;101660.78;;;14.67
7830;BMP180;3960;51.86894000;5.39848000;2023-05-07T05:15:12;101659.59;;;14.68
7830;BMP180;3960;51.86894000;5.39848000;2023-05-07T05:17:38;101665.41;;;14.70
7830;BMP180;3960;51.86894000;5.39848000;2023-05-07T05:20:04;101661.97;;;14.66
7830;BMP180;3960;51.86894000;5.39848000;2023-05-07T05:22:31;101667.38;;;14.70
7830;BMP180;3960;51.86894000;5.39848000;2023-05-07T05:24:56;101668.91;;;14.71
7830;BMP180;3960;51.86894000;5.39848000;2023-05-07T05:27:22;101672.41;;;14.71
7830;BMP180;3960;51.86894000;5.39848000;2023-05-07T05:29:47;101675.91;;;14.72
7830;BMP180;3960;51.86894000;5.39848000;2023-05-07T05:32:12;101684.81;;;14.76
7830;BMP180;3960;51.86894000;5.39848000;2023-05-07T05:34:37;101679.28;;;14.79
7830;BMP180;3960;51.86894000;5.39848000;2023-05-07T05:37:03;101680.84;;;14.80
7830;BMP180;3960;51.86894000;5.39848000;2023-05-07T05:39:28;101690.91;;;14.83
7830;BMP180;3960;51.86894000;5.39848000;2023-05-07T05:41:53;101689.72;;;14.84
7830;BMP180;3960;51.86894000;5.39848000;2023-05-07T05:44:19;101690.09;;;14.86
7830;BMP180;3960;51.86894000;5.39848000;2023-05-07T05:46:44;101681.59;;;14.81
7830;BMP180;3960;51.86894000;5.39848000;2023-05-07T05:49:10;101695.91;;;14.88
7830;BMP180;3960;51.86894000;5.39848000;2023-05-07T05:51:35;101689.78;;;14.81
7830;BMP180;3960;51.86894000;5.39848000;2023-05-07T05:54:00;101697.53;;;14.86
7830;BMP180;3960;51.86894000;5.39848000;2023-05-07T05:56:26;101699.47;;;14.85
7830;BMP180;3960;51.86894000;5.39848000;2023-05-07T05:58:51;101700.63;;;14.84
7830;BMP180;3960;51.86894000;5.39848000;2023-05-07T06:01:17;101689.84;;;14.77
7830;BMP180;3960;51.86894000;5.39848000;2023-05-07T06:03:42;101705.34;;;14.84
7830;BMP180;3960;51.86894000;5.39848000;2023-05-07T06:06:08;101691.75;;;14.80
7830;BMP180;3960;51.86894000;5.39848000;2023-05-07T06:08:33;101699.09;;;14.83
7830;BMP180;3960;51.86894000;5.39848000;2023-05-07T06:10:58;101695.59;;;14.83
7830;BMP180;3960;51.86894000;5.39848000;2023-05-07T06:13:25;101696.78;;;14.82
7830;BMP180;3960;51.86894000;5.39848000;2023-05-07T06:15:50;101699.50;;;14.82
7830;BMP180;3960;51.86894000;5.39848000;2023-05-07T06:18:15;101697.56;;;14.82
7830;BMP180;3960;51.86894000;5.39848000;2023-05-07T06:20:40;101711.50;;;14.88
7830;BMP180;3960;51.86894000;5.39848000;2023-05-07T06:23:06;101707.22;;;14.87
7830;BMP180;3960;51.86894000;5.39848000;2023-05-07T06:25:31;101716.50;;;14.93
7830;BMP180;3960;51.86894000;5.39848000;2023-05-07T06:27:56;101702.56;;;14.87
7830;BMP180;3960;51.86894000;5.39848000;2023-05-07T06:30:22;101715.56;;;15.03
7830;BMP180;3960;51.86894000;5.39848000;2023-05-07T06:32:47;101691.13;;;14.96
7830;BMP180;3960;51.86894000;5.39848000;2023-05-07T06:35:12;101703.41;;;15.07
7830;BMP180;3960;51.86894000;5.39848000;2023-05-07T06:37:38;101705.25;;;15.14
7830;BMP180;3960;51.86894000;5.39848000;2023-05-07T06:40:05;101708.72;;;15.18
7830;BMP180;3960;51.86894000;5.39848000;2023-05-07T06:42:32;101707.16;;;15.17
7830;BMP180;3960;51.86894000;5.39848000;2023-05-07T06:44:57;101705.94;;;15.21
7830;BMP180;3960;51.86894000;5.39848000;2023-05-07T06:47:22;101713.72;;;15.23
7830;BMP180;3960;51.86894000;5.39848000;2023-05-07T06:49:53;101715.28;;;15.20
7830;BMP180;3960;51.86894000;5.39848000;2023-05-07T06:52:19;101717.22;;;15.23
7830;BMP180;3960;51.86894000;5.39848000;2023-05-07T06:54:44;101719.19;;;15.19
7830;BMP180;3960;51.86894000;5.39848000;2023-05-07T06:57:09;101721.13;;;15.22
7830;BMP180;3960;51.86894000;5.39848000;2023-05-07T06:59:35;101722.28;;;15.25
7830;BMP180;3960;51.86894000;5.39848000;2023-05-07T07:02:00;101716.81;;;15.25
7830;BMP180;3960;51.86894000;5.39848000;2023-05-07T07:04:25;101719.13;;;15.26
7830;BMP180;3960;51.86894000;5.39848000;2023-05-07T07:06:52;101728.38;;;15.32
7830;BMP180;3960;51.86894000;5.39848000;2023-05-07T07:09:17;101712.81;;;15.29
7830;BMP180;3960;51.86894000;5.39848000;2023-05-07T07:11:43;101720.50;;;15.37
7830;BMP180;3960;51.86894000;5.39848000;2023-05-07T07:14:08;101732.06;;;15.45
7830;BMP180;3960;51.86894000;5.39848000;2023-05-07T07:16:33;101726.47;;;15.52
7830;BMP180;3960;51.86894000;5.39848000;2023-05-07T07:18:59;101721.38;;;15.54
7830;BMP180;3960;51.86894000;5.39848000;2023-05-07T07:21:24;101729.03;;;15.62
7830;BMP180;3960;51.86894000;5.39848000;2023-05-07T07:23:49;101729.41;;;15.64
7830;BMP180;3960;51.86894000;5.39848000;2023-05-07T07:26:14;101725.75;;;15.71
7830;BMP180;3960;51.86894000;5.39848000;2023-05-07T07:28:44;101726.38;;;15.78
7830;BMP180;3960;51.86894000;5.39848000;2023-05-07T07:31:10;101718.19;;;15.78
7830;BMP180;3960;51.86894000;5.39848000;2023-05-07T07:33:36;101728.59;;;15.87
7830;BMP180;3960;51.86894000;5.39848000;2023-05-07T07:36:01;101723.81;;;15.91
7830;BMP180;3960;51.86894000;5.39848000;2023-05-07T07:38:26;101717.38;;;16.01
7830;BMP180;3960;51.86894000;5.39848000;2023-05-07T07:40:52;101727.34;;;16.10
7830;BMP180;3960;51.86894000;5.39848000;2023-05-07T07:43:17;101734.97;;;16.19
7830;BMP180;3960;51.86894000;5.39848000;2023-05-07T07:45:42;101742.69;;;16.24
7830;BMP180;3960;51.86894000;5.39848000;2023-05-07T07:48:07;101745.34;;;16.27
7830;BMP180;3960;51.86894000;5.39848000;2023-05-07T07:50:33;101742.50;;;16.34
7830;BMP180;3960;51.86894000;5.39848000;2023-05-07T07:52:58;101742.72;;;16.43
7830;BMP180;3960;51.86894000;5.39848000;2023-05-07T07:55:23;101749.59;;;16.51
7830;BMP180;3960;51.86894000;5.39848000;2023-05-07T07:57:49;101746.72;;;16.58
7830;BMP180;3960;51.86894000;5.39848000;2023-05-07T08:00:15;101748.16;;;16.63
7830;BMP180;3960;51.86894000;5.39848000;2023-05-07T08:02:41;101754.94;;;16.74
7830;BMP180;3960;51.86894000;5.39848000;2023-05-07T08:05:07;101751.28;;;16.81
7830;BMP180;3960;51.86894000;5.39848000;2023-05-07T08:07:32;101752.25;;;16.90
7830;BMP180;3960;51.86894000;5.39848000;2023-05-07T08:09:57;101754.31;;;17.02
7830;BMP180;3960;51.86894000;5.39848000;2023-05-07T08:12:23;101749.19;;;17.20
7830;BMP180;3960;51.86894000;5.39848000;2023-05-07T08:14:48;101748.63;;;17.28
7830;BMP180;3960;51.86894000;5.39848000;2023-05-07T08:17:14;101751.09;;;17.39
7830;BMP180;3960;51.86894000;5.39848000;2023-05-07T08:19:41;101749.91;;;17.56
7830;BMP180;3960;51.86894000;5.39848000;2023-05-07T08:22:06;101748.19;;;17.61
7830;BMP180;3960;51.86894000;5.39848000;2023-05-07T08:24:31;101749.13;;;17.71
7830;BMP180;3960;51.86894000;5.39848000;2023-05-07T08:26:57;101757.91;;;17.78
7830;BMP180;3960;51.86894000;5.39848000;2023-05-07T08:29:22;101758.19;;;17.84
7830;BMP180;3960;51.86894000;5.39848000;2023-05-07T08:31:47;101757.09;;;17.94
7830;BMP180;3960;51.86894000;5.39848000;2023-05-07T08:34:12;101753.03;;;18.14
7830;BMP180;3960;51.86894000;5.39848000;2023-05-07T08:36:38;101759.44;;;18.52
7830;BMP180;3960;51.86894000;5.39848000;2023-05-07T08:39:03;101753.53;;;18.78
7830;BMP180;3960;51.86894000;5.39848000;2023-05-07T08:41:29;101765.53;;;18.84
7830;BMP180;3960;51.86894000;5.39848000;2023-05-07T08:43:57;101770.00;;;18.91
7830;BMP180;3960;51.86894000;5.39848000;2023-05-07T08:46:25;101757.31;;;19.09
7830;BMP180;3960;51.86894000;5.39848000;2023-05-07T08:48:51;101761.47;;;19.26
7830;BMP180;3960;51.86894000;5.39848000;2023-05-07T08:51:18;101764.97;;;19.39
7830;BMP180;3960;51.86894000;5.39848000;2023-05-07T08:53:46;101763.31;;;19.41
7830;BMP180;3960;51.86894000;5.39848000;2023-05-07T08:56:13;101764.72;;;19.58
7830;BMP180;3960;51.86894000;5.39848000;2023-05-07T08:58:40;101764.41;;;19.90
7830;BMP180;3960;51.86894000;5.39848000;2023-05-07T09:01:10;101772.19;;;20.25
7830;BMP180;3960;51.86894000;5.39848000;2023-05-07T09:03:38;101774.38;;;20.30
7830;BMP180;3960;51.86894000;5.39848000;2023-05-07T09:06:04;101770.88;;;20.30
7830;BMP180;3960;51.86894000;5.39848000;2023-05-07T09:08:30;101778.78;;;20.28
7830;BMP180;3960;51.86894000;5.39848000;2023-05-07T09:10:55;101771.53;;;20.21
7830;BMP180;3960;51.86894000;5.39848000;2023-05-07T09:13:20;101771.38;;;20.16
7830;BMP180;3960;51.86894000;5.39848000;2023-05-07T09:15:46;101767.91;;;20.03
7830;BMP180;3960;51.86894000;5.39848000;2023-05-07T09:18:12;101759.31;;;20.01
7830;BMP180;3960;51.86894000;5.39848000;2023-05-07T09:20:38;101771.41;;;20.03
7830;BMP180;3960;51.86894000;5.39848000;2023-05-07T09:23:03;101765.78;;;20.07
7830;BMP180;3960;51.86894000;5.39848000;2023-05-07T09:25:32;101766.38;;;20.23
7830;BMP180;3960;51.86894000;5.39848000;2023-05-07T09:27:59;101770.78;;;20.63
7830;BMP180;3960;51.86894000;5.39848000;2023-05-07T09:30:32;101779.84;;;21.03
7830;BMP180;3960;51.86894000;5.39848000;2023-05-07T09:32:58;101778.16;;;21.45
7830;BMP180;3960;51.86894000;5.39848000;2023-05-07T09:35:27;101776.97;;;21.55
7830;BMP180;3960;51.86894000;5.39848000;2023-05-07T09:37:54;101773.66;;;21.60
7830;BMP180;3960;51.86894000;5.39848000;2023-05-07T09:40:25;101774.72;;;21.71
7830;BMP180;3960;51.86894000;5.39848000;2023-05-07T09:42:50;101780.69;;;21.88
7830;BMP180;3960;51.86894000;5.39848000;2023-05-07T09:45:21;101780.69;;;21.88
7830;BMP180;3960;51.86894000;5.39848000;2023-05-07T09:47:48;101774.09;;;21.67
7830;BMP180;3960;51.86894000;5.39848000;2023-05-07T09:50:15;101783.78;;;21.72
7830;BMP180;3960;51.86894000;5.39848000;2023-05-07T09:52:42;101780.53;;;21.73
7830;BMP180;3960;51.86894000;5.39848000;2023-05-07T09:55:07;101785.31;;;21.73
7830;BMP180;3960;51.86894000;5.39848000;2023-05-07T09:57:34;101783.59;;;21.66
7830;BMP180;3960;51.86894000;5.39848000;2023-05-07T10:00:01;101781.63;;;21.67
7830;BMP180;3960;51.86894000;5.39848000;2023-05-07T10:02:30;101781.75;;;21.72
7830;BMP180;3960;51.86894000;5.39848000;2023-05-07T10:04:56;101776.56;;;21.74
7830;BMP180;3960;51.86894000;5.39848000;2023-05-07T10:07:24;101776.53;;;21.65
7830;BMP180;3960;51.86894000;5.39848000;2023-05-07T10:09:49;101778.84;;;21.76
7830;BMP180;3960;51.86894000;5.39848000;2023-05-07T10:12:16;101777.47;;;21.71
7830;BMP180;3960;51.86894000;5.39848000;2023-05-07T10:14:43;101777.47;;;21.71
7830;BMP180;3960;51.86894000;5.39848000;2023-05-07T10:17:09;101781.31;;;21.74
7830;BMP180;3960;51.86894000;5.39848000;2023-05-07T10:19:37;101776.09;;;21.76
7830;BMP180;3960;51.86894000;5.39848000;2023-05-07T10:22:05;101779.78;;;21.91
7830;BMP180;3960;51.86894000;5.39848000;2023-05-07T10:24:35;101774.72;;;21.80
7830;BMP180;3960;51.86894000;5.39848000;2023-05-07T10:27:04;101779.19;;;22.13
7830;BMP180;3960;51.86894000;5.39848000;2023-05-07T10:29:39;101778.25;;;22.43
7830;BMP180;3960;51.86894000;5.39848000;2023-05-07T10:35:06;101780.66;;;22.59
7830;BMP180;3960;51.86894000;5.39848000;2023-05-07T10:37:34;101777.19;;;22.41
7830;BMP180;3960;51.86894000;5.39848000;2023-05-07T10:39:59;101781.94;;;22.49
7830;BMP180;3960;51.86894000;5.39848000;2023-05-07T10:42:25;101782.69;;;22.59
7830;BMP180;3960;51.86894000;5.39848000;2023-05-07T10:44:50;101783.13;;;22.66
7830;BMP180;3960;51.86894000;5.39848000;2023-05-07T10:47:16;101782.34;;;22.75
7830;BMP180;3960;51.86894000;5.39848000;2023-05-07T10:52:17;101790.25;;;22.90
7830;BMP180;3960;51.86894000;5.39848000;2023-05-07T10:54:43;101794.09;;;22.93
7830;BMP180;3960;51.86894000;5.39848000;2023-05-07T10:59:53;101788.38;;;23.14
7830;BMP180;3960;51.86894000;5.39848000;2023-05-07T11:02:18;101774.81;;;23.16
7830;BMP180;3960;51.86894000;5.39848000;2023-05-07T11:04:45;101783.25;;;23.22
7830;BMP180;3960;51.86894000;5.39848000;2023-05-07T11:07:27;101780.34;;;23.49
7830;BMP180;3960;51.86894000;5.39848000;2023-05-07T11:15:14;101781.50;;;24.55
7830;BMP180;3960;51.86894000;5.39848000;2023-05-07T11:17:53;101787.69;;;23.98
7830;BMP180;3960;51.86894000;5.39848000;2023-05-07T11:20:19;101768.09;;;23.64
7830;BMP180;3960;51.86894000;5.39848000;2023-05-07T11:22:45;101780.00;;;23.55
7830;BMP180;3960;51.86894000;5.39848000;2023-05-07T11:25:17;101785.63;;;23.61
7830;BMP180;3960;51.86894000;5.39848000;2023-05-07T11:27:42;101779.31;;;23.93
7830;BMP180;3960;51.86894000;5.39848000;2023-05-07T11:30:08;101784.56;;;24.05
7830;BMP180;3960;51.86894000;5.39848000;2023-05-07T11:32:34;101779.34;;;24.07
7830;BMP180;3960;51.86894000;5.39848000;2023-05-07T11:35:00;101775.38;;;23.85
7830;BMP180;3960;51.86894000;5.39848000;2023-05-07T11:37:27;101770.38;;;23.74
7830;BMP180;3960;51.86894000;5.39848000;2023-05-07T11:40:06;101779.41;;;23.75
7830;BMP180;3960;51.86894000;5.39848000;2023-05-07T11:42:34;101770.16;;;23.54
7830;BMP180;3960;51.86894000;5.39848000;2023-05-07T11:45:00;101773.84;;;23.52
7830;BMP180;3960;51.86894000;5.39848000;2023-05-07T11:47:25;101779.88;;;23.50
7830;BMP180;3960;51.86894000;5.39848000;2023-05-07T11:49:52;101769.28;;;23.49
7830;BMP180;3960;51.86894000;5.39848000;2023-05-07T11:52:20;101777.16;;;23.41
7830;BMP180;3960;51.86894000;5.39848000;2023-05-07T11:54:53;101771.69;;;23.32
7830;BMP180;3960;51.86894000;5.39848000;2023-05-07T11:57:20;101782.31;;;23.25
7830;BMP180;3960;51.86894000;5.39848000;2023-05-07T11:59:45;101774.84;;;23.40
7830;BMP180;3960;51.86894000;5.39848000;2023-05-07T12:02:14;101777.22;;;23.55
7830;BMP180;3960;51.86894000;5.39848000;2023-05-07T12:04:40;101778.88;;;23.62
7830;BMP180;3960;51.86894000;5.39848000;2023-05-07T12:07:06;101791.09;;;23.70
7830;BMP180;3960;51.86894000;5.39848000;2023-05-07T12:09:36;101773.28;;;23.71
7830;BMP180;3960;51.86894000;5.39848000;2023-05-07T12:12:04;101780.91;;;23.85
7830;BMP180;3960;51.86894000;5.39848000;2023-05-07T12:14:30;101788.00;;;24.00
7830;BMP180;3960;51.86894000;5.39848000;2023-05-07T12:16:55;101788.84;;;23.92
7830;BMP180;3960;51.86894000;5.39848000;2023-05-07T12:19:21;101781.28;;;23.92
7830;BMP180;3960;51.86894000;5.39848000;2023-05-07T12:21:47;101783.41;;;23.97
7830;BMP180;3960;51.86894000;5.39848000;2023-05-07T12:24:14;101784.34;;;23.94
7830;BMP180;3960;51.86894000;5.39848000;2023-05-07T12:26:40;101789.28;;;23.90
7830;BMP180;3960;51.86894000;5.39848000;2023-05-07T12:29:06;101784.78;;;23.78
7830;BMP180;3960;51.86894000;5.39848000;2023-05-07T12:31:31;101769.13;;;23.52
7830;BMP180;3960;51.86894000;5.39848000;2023-05-07T12:33:57;101792.41;;;23.60
7830;BMP180;3960;51.86894000;5.39848000;2023-05-07T12:36:22;101783.13;;;23.49
7830;BMP180;3960;51.86894000;5.39848000;2023-05-07T12:38:49;101784.69;;;23.41